createdAt,value
2022-09-25T00:00:30.756Z,50.63
2022-09-25T00:02:57.089Z,53.25
2022-09-25T00:05:23.441Z,66.45
2022-09-25T00:07:49.705Z,91.35
2022-09-25T00:10:15.969Z,90.22
2022-09-25T00:12:42.269Z,66.40
2022-09-25T00:15:08.512Z,56.70
2022-09-25T00:17:34.798Z,48.00
2022-09-25T00:20:01.188Z,52.40
2022-09-25T00:22:28.008Z,49.38
2022-09-25T00:24:54.273Z,50.00
2022-09-25T00:27:20.545Z,48.83
2022-09-25T00:29:47.517Z,47.08
2022-09-25T00:32:13.781Z,47.50
2022-09-25T00:34:40.370Z,50.53
2022-09-25T00:37:06.627Z,52.72
2022-09-25T00:39:32.875Z,50.67
2022-09-25T00:41:59.138Z,50.75
2022-09-25T00:44:25.430Z,51.85
2022-09-25T00:46:51.683Z,50.38
2022-09-25T00:49:17.930Z,48.78
2022-09-25T00:51:44.184Z,49.10
2022-09-25T00:54:10.617Z,53.03
2022-09-25T00:56:37.001Z,54.65
2022-09-25T00:59:03.265Z,53.70
2022-09-25T01:01:29.540Z,57.20
2022-09-25T01:03:56.038Z,61.20
2022-09-25T01:06:22.293Z,57.55
2022-09-25T01:08:48.541Z,51.42
2022-09-25T01:11:14.862Z,56.05
2022-09-25T01:13:41.238Z,57.58
2022-09-25T01:16:08.120Z,57.22
2022-09-25T01:18:34.393Z,51.20
2022-09-25T01:21:00.638Z,54.30
2022-09-25T01:23:26.908Z,51.58
2022-09-25T01:25:55.964Z,56.95
2022-09-25T01:28:22.255Z,54.05
2022-09-25T01:30:48.547Z,52.75
2022-09-25T01:33:14.927Z,52.53
2022-09-25T01:35:41.194Z,51.95
2022-09-25T01:38:07.616Z,50.42
2022-09-25T01:40:33.949Z,52.22
2022-09-25T01:43:01.481Z,51.00
2022-09-25T01:45:28.551Z,49.63
2022-09-25T01:47:54.958Z,51.80
2022-09-25T01:50:21.201Z,53.28
2022-09-25T01:52:47.439Z,59.55
2022-09-25T01:55:13.686Z,62.05
2022-09-25T01:57:39.956Z,64.15
2022-09-25T02:00:06.205Z,64.43
2022-09-25T02:02:35.125Z,62.85
2022-09-25T02:05:01.481Z,61.15
2022-09-25T02:07:27.758Z,53.13
2022-09-25T02:09:54.048Z,56.60
2022-09-25T02:12:20.323Z,54.60
2022-09-25T02:14:46.593Z,57.00
2022-09-25T02:17:12.857Z,52.28
2022-09-25T02:19:57.758Z,55.60
2022-09-25T02:22:24.640Z,57.80
2022-09-25T02:24:54.109Z,54.35
2022-09-25T02:27:22.835Z,51.90
2022-09-25T02:29:49.106Z,54.50
2022-09-25T02:32:15.608Z,51.88
2022-09-25T02:34:41.855Z,48.70
2022-09-25T02:37:08.130Z,49.13
2022-09-25T02:39:34.388Z,56.05
2022-09-25T02:42:00.656Z,53.45
2022-09-25T02:44:26.909Z,56.47
2022-09-25T02:46:53.172Z,56.55
2022-09-25T02:49:19.431Z,58.33
2022-09-25T02:51:45.680Z,56.45
2022-09-25T02:54:12.012Z,60.80
2022-09-25T02:56:38.349Z,54.97
2022-09-25T02:59:06.680Z,50.00
2022-09-25T03:01:32.984Z,53.78
2022-09-25T03:03:59.304Z,57.67
2022-09-25T03:06:25.556Z,56.55
2022-09-25T03:08:52.904Z,56.38
2022-09-25T03:11:19.695Z,57.15
2022-09-25T03:13:45.955Z,62.63
2022-09-25T03:16:12.254Z,59.08
2022-09-25T03:18:38.591Z,68.60
2022-09-25T03:21:04.839Z,63.85
2022-09-25T03:23:32.176Z,62.78
2022-09-25T03:25:58.430Z,67.45
2022-09-25T03:28:24.706Z,62.47
2022-09-25T03:30:52.363Z,60.47
2022-09-25T03:33:18.710Z,59.40
2022-09-25T03:35:44.955Z,55.15
2022-09-25T03:38:12.429Z,56.90
2022-09-25T03:40:38.763Z,68.07
2022-09-25T03:45:30.953Z,61.90
2022-09-25T03:47:57.229Z,60.80
2022-09-25T03:50:23.470Z,58.88
2022-09-25T03:52:49.797Z,54.95
2022-09-25T03:55:16.074Z,60.30
2022-09-25T03:57:42.892Z,64.57
2022-09-25T04:00:09.933Z,67.97
2022-09-25T04:02:36.265Z,67.38
2022-09-25T04:05:04.037Z,62.10
2022-09-25T04:07:30.407Z,62.17
2022-09-25T04:09:56.672Z,55.60
2022-09-25T04:12:22.922Z,54.10
2022-09-25T04:14:49.173Z,55.17
2022-09-25T04:17:15.437Z,63.58
2022-09-25T04:19:41.679Z,64.97
2022-09-25T04:22:07.940Z,62.97
2022-09-25T04:24:49.564Z,64.75
2022-09-25T04:27:15.848Z,62.20
2022-09-25T04:29:42.427Z,60.97
2022-09-25T04:32:27.431Z,60.58
2022-09-25T04:34:53.674Z,58.30
2022-09-25T04:37:23.178Z,52.97
2022-09-25T04:39:49.433Z,57.00
2022-09-25T04:42:15.705Z,56.45
2022-09-25T04:44:41.946Z,55.28
2022-09-25T04:47:08.212Z,60.40
2022-09-25T04:49:34.452Z,64.20
2022-09-25T04:52:00.760Z,60.22
2022-09-25T04:54:27.477Z,54.75
2022-09-25T04:56:54.227Z,58.83
2022-09-25T04:59:20.468Z,61.05
2022-09-25T05:01:46.873Z,59.13
2022-09-25T05:04:14.288Z,59.28
2022-09-25T05:06:40.624Z,61.97
2022-09-25T05:09:06.971Z,64.22
2022-09-25T05:11:33.265Z,58.92
2022-09-25T05:13:59.521Z,53.63
2022-09-25T05:16:27.948Z,55.70
2022-09-25T05:18:54.254Z,51.63
2022-09-25T05:21:20.509Z,50.17
2022-09-25T05:23:46.769Z,49.67
2022-09-25T05:26:13.084Z,46.25
2022-09-25T05:28:39.334Z,48.75
2022-09-25T05:31:05.705Z,48.65
2022-09-25T05:33:32.047Z,50.30
2022-09-25T05:35:58.300Z,52.70
2022-09-25T05:38:24.547Z,49.30
2022-09-25T05:40:51.214Z,55.03
2022-09-25T05:43:17.559Z,51.33
2022-09-25T05:45:43.872Z,54.40
2022-09-25T05:48:10.216Z,51.53
2022-09-25T05:50:36.482Z,48.60
2022-09-25T05:53:02.749Z,49.08
2022-09-25T05:55:29.011Z,52.70
2022-09-25T05:57:55.260Z,52.88
2022-09-25T06:00:21.522Z,50.70
2022-09-25T06:02:47.797Z,51.30
2022-09-25T06:05:14.674Z,51.10
2022-09-25T06:07:43.975Z,51.45
2022-09-25T06:10:10.711Z,52.05
2022-09-25T06:12:36.987Z,53.90
2022-09-25T06:15:03.235Z,55.03
2022-09-25T06:17:29.502Z,54.05
2022-09-25T06:19:55.746Z,54.67
2022-09-25T06:22:22.023Z,52.78
2022-09-25T06:24:48.884Z,53.30
2022-09-25T06:27:15.156Z,52.67
2022-09-25T06:29:41.412Z,54.33
2022-09-25T06:32:07.666Z,54.53
2022-09-25T06:34:33.924Z,57.90
2022-09-25T06:37:00.194Z,53.35
2022-09-25T06:39:26.453Z,53.40
2022-09-25T06:41:53.022Z,62.42
2022-09-25T06:44:19.402Z,67.00
2022-09-25T06:46:46.898Z,62.55
2022-09-25T06:49:13.394Z,61.15
2022-09-25T06:51:40.183Z,50.50
2022-09-25T06:54:06.826Z,48.72
2022-09-25T06:56:33.123Z,49.85
2022-09-25T06:58:59.367Z,50.42
2022-09-25T07:01:25.698Z,58.00
2022-09-25T07:03:51.997Z,44.83
2022-09-25T07:06:18.246Z,43.63
2022-09-25T07:08:44.545Z,45.47
2022-09-25T07:11:10.823Z,51.10
2022-09-25T07:13:37.095Z,56.42
2022-09-25T07:16:03.445Z,62.03
2022-09-25T07:18:29.751Z,62.58
2022-09-25T07:20:56.073Z,49.35
2022-09-25T07:23:22.427Z,42.85
2022-09-25T07:25:48.710Z,43.67
2022-09-25T07:28:15.737Z,46.75
2022-09-25T07:30:42.129Z,50.85
2022-09-25T07:33:08.468Z,54.85
2022-09-25T07:35:34.713Z,62.08
2022-09-25T07:38:00.994Z,87.80
2022-09-25T07:40:28.714Z,87.32
2022-09-25T07:42:54.990Z,78.32
2022-09-25T07:45:21.248Z,68.75
2022-09-25T07:47:47.498Z,64.47
2022-09-25T07:50:15.654Z,57.97
2022-09-25T07:52:42.171Z,55.25
2022-09-25T07:55:08.427Z,52.15
2022-09-25T07:57:34.741Z,48.92
2022-09-25T08:00:00.996Z,71.90
2022-09-25T08:02:27.314Z,62.40
2022-09-25T08:04:54.507Z,78.90
2022-09-25T08:07:20.691Z,75.70
2022-09-25T08:09:46.950Z,79.45
2022-09-25T08:12:13.604Z,91.53
2022-09-25T08:14:39.871Z,128.27
2022-09-25T08:17:06.119Z,104.43
2022-09-25T08:19:33.132Z,115.60
2022-09-25T08:21:59.378Z,67.68
2022-09-25T08:24:25.627Z,59.97
2022-09-25T08:26:51.885Z,133.00
2022-09-25T08:29:18.420Z,198.35
2022-09-25T08:31:44.772Z,115.05
2022-09-25T08:34:36.312Z,64.53
2022-09-25T08:36:57.956Z,56.15
2022-09-25T08:39:24.221Z,59.53
2022-09-25T08:41:50.558Z,55.78
2022-09-25T08:44:16.818Z,62.55
2022-09-25T08:47:01.862Z,76.40
2022-09-25T08:49:28.383Z,74.85
2022-09-25T08:51:54.651Z,71.10
2022-09-25T08:54:20.898Z,80.93
2022-09-25T08:56:47.661Z,70.28
2022-09-25T08:59:13.904Z,62.22
2022-09-25T09:01:40.227Z,79.47
2022-09-25T09:04:06.753Z,80.45
2022-09-25T09:06:33.046Z,64.75
2022-09-25T09:08:59.311Z,70.50
2022-09-25T09:11:25.594Z,69.70
2022-09-25T09:13:51.939Z,72.97
2022-09-25T09:16:18.238Z,88.47
2022-09-25T09:18:44.543Z,79.90
2022-09-25T09:21:10.800Z,79.18
2022-09-25T09:23:37.085Z,122.75
2022-09-25T09:26:03.347Z,59.00
2022-09-25T09:28:30.160Z,212.75
2022-09-25T09:30:56.485Z,88.82
2022-09-25T09:33:22.757Z,102.30
2022-09-25T09:35:49.015Z,114.93
2022-09-25T09:38:15.272Z,119.72
2022-09-25T09:40:41.613Z,91.13
2022-09-25T09:43:07.899Z,75.32
2022-09-25T09:45:34.177Z,209.57
2022-09-25T09:48:00.423Z,70.88
2022-09-25T09:50:26.681Z,103.90
2022-09-25T09:52:52.927Z,110.78
2022-09-25T09:55:19.224Z,67.20
2022-09-25T09:57:45.481Z,91.07
2022-09-25T10:00:11.745Z,175.00
2022-09-25T10:02:38.184Z,65.97
2022-09-25T10:05:04.516Z,108.97
2022-09-25T10:07:30.773Z,98.00
2022-09-25T10:09:58.071Z,78.68
2022-09-25T10:12:25.408Z,98.63
2022-09-25T10:14:51.842Z,148.45
2022-09-25T10:17:18.098Z,213.18
2022-09-25T10:19:44.359Z,125.65
2022-09-25T10:22:11.982Z,142.32
2022-09-25T10:24:41.024Z,255.50
2022-09-25T10:27:07.406Z,234.02
2022-09-25T10:29:33.657Z,126.97
2022-09-25T10:31:59.924Z,140.13
2022-09-25T10:34:28.576Z,161.73
2022-09-25T10:36:58.020Z,129.98
2022-09-25T10:39:43.514Z,138.15
2022-09-25T10:42:14.228Z,107.40
2022-09-25T10:44:40.508Z,100.80
2022-09-25T10:47:25.554Z,218.20
2022-09-25T10:50:10.381Z,282.58
2022-09-25T10:52:36.660Z,207.20
2022-09-25T10:55:02.927Z,117.88
2022-09-25T10:57:33.970Z,97.57
2022-09-25T11:00:00.403Z,112.82
2022-09-25T11:02:28.316Z,88.47
2022-09-25T11:07:27.227Z,129.43
2022-09-25T11:09:59.065Z,250.70
2022-09-25T11:12:26.336Z,124.82
2022-09-25T11:14:55.228Z,183.85
2022-09-25T11:17:21.776Z,218.90
2022-09-25T11:19:48.040Z,226.55
2022-09-25T11:22:14.296Z,169.02
2022-09-25T11:24:40.564Z,199.20
2022-09-25T11:27:06.844Z,161.90
2022-09-25T11:29:33.714Z,267.73
2022-09-25T11:31:59.997Z,292.40
2022-09-25T11:34:26.252Z,319.70
2022-09-25T11:36:52.531Z,290.65
2022-09-25T11:39:37.601Z,195.63
2022-09-25T11:42:03.876Z,167.45
2022-09-25T11:44:32.111Z,215.77
2022-09-25T11:46:59.821Z,231.23
2022-09-25T11:49:26.604Z,561.20
2022-09-25T11:51:52.903Z,999.90
2022-09-25T11:54:33.359Z,999.90
2022-09-25T11:57:03.863Z,999.90
2022-09-25T11:59:30.125Z,999.90
2022-09-25T12:01:56.402Z,999.90
2022-09-25T12:04:23.035Z,999.90
2022-09-25T12:06:49.620Z,999.90
2022-09-25T12:09:15.905Z,999.90
2022-09-25T12:11:45.694Z,999.90
2022-09-25T12:14:12.133Z,999.90
2022-09-25T12:16:38.504Z,999.90
2022-09-25T12:19:04.803Z,999.90
2022-09-25T12:21:34.072Z,999.90
2022-09-25T12:24:00.409Z,999.90
2022-09-25T12:26:26.660Z,999.90
2022-09-25T12:28:52.961Z,999.90
2022-09-25T12:31:19.345Z,999.90
2022-09-25T12:33:45.719Z,999.90
2022-09-25T12:36:11.984Z,999.90
2022-09-25T12:38:38.259Z,999.90
2022-09-25T12:41:06.439Z,999.90
2022-09-25T12:43:33.600Z,999.90
2022-09-25T12:46:00.455Z,999.90
2022-09-25T12:48:26.744Z,999.90
2022-09-25T12:50:53.008Z,999.90
2022-09-25T12:53:19.263Z,999.90
2022-09-25T12:55:45.521Z,999.90
2022-09-25T12:58:12.034Z,999.90
2022-09-25T13:00:38.765Z,999.90
2022-09-25T13:03:05.040Z,999.90
2022-09-25T13:05:31.818Z,999.90
2022-09-25T13:07:58.109Z,999.90
2022-09-25T13:10:24.919Z,999.90
2022-09-25T13:12:51.198Z,999.90
2022-09-25T13:15:17.455Z,999.90
2022-09-25T13:17:43.703Z,999.90
2022-09-25T13:23:01.661Z,999.90
2022-09-25T13:25:27.960Z,999.90
2022-09-25T13:27:54.264Z,999.90
2022-09-25T13:30:20.566Z,999.90
2022-09-25T13:32:46.834Z,999.90
2022-09-25T13:35:17.290Z,999.90
2022-09-25T13:37:45.588Z,999.90
2022-09-25T13:40:30.456Z,999.90
2022-09-25T13:42:56.764Z,999.90
2022-09-25T13:45:23.034Z,999.90
2022-09-25T13:47:49.499Z,999.90
2022-09-25T13:50:15.785Z,999.90
2022-09-25T13:52:42.048Z,999.90
2022-09-25T13:55:08.318Z,999.90
2022-09-25T13:57:36.334Z,999.90
2022-09-25T14:00:03.254Z,999.90
2022-09-25T14:02:29.514Z,999.90
2022-09-25T14:04:55.818Z,999.90
2022-09-25T14:07:22.083Z,999.90
2022-09-25T14:09:48.368Z,999.90
2022-09-25T14:12:19.301Z,999.90
2022-09-25T14:14:52.229Z,999.90
2022-09-25T14:17:18.504Z,999.90
2022-09-25T14:19:44.936Z,999.90
2022-09-25T14:22:11.334Z,999.90
2022-09-25T14:24:38.186Z,999.90
2022-09-25T14:27:04.446Z,999.90
2022-09-25T14:29:30.874Z,999.90
2022-09-25T14:31:57.825Z,999.90
2022-09-25T14:34:28.159Z,999.90
2022-09-25T14:36:54.420Z,999.90
2022-09-25T14:39:20.689Z,999.90
2022-09-25T14:41:46.980Z,999.90
2022-09-25T14:44:14.575Z,999.90
2022-09-25T14:46:40.889Z,999.90
2022-09-25T14:49:07.152Z,999.90
2022-09-25T14:51:33.420Z,999.90
2022-09-25T14:53:59.757Z,999.90
2022-09-25T14:56:26.022Z,999.90
2022-09-25T14:58:52.271Z,999.90
2022-09-25T15:01:19.069Z,999.90
2022-09-25T15:03:46.779Z,999.90
2022-09-25T15:06:16.347Z,999.90
2022-09-25T15:08:42.896Z,999.90
2022-09-25T15:11:09.168Z,999.90
2022-09-25T15:13:35.442Z,999.90
2022-09-25T15:16:20.518Z,999.90
2022-09-25T15:18:46.874Z,999.90
2022-09-25T15:21:13.137Z,999.90
2022-09-25T15:23:39.806Z,999.90
2022-09-25T15:26:06.058Z,999.90
2022-09-25T15:28:32.310Z,999.90
2022-09-25T15:30:58.650Z,999.90
2022-09-25T15:33:25.503Z,999.90
2022-09-25T15:35:51.789Z,999.90
2022-09-25T15:38:18.411Z,249.82
2022-09-25T15:40:44.739Z,187.68
2022-09-25T15:43:11.069Z,151.77
2022-09-25T15:45:37.399Z,144.65
2022-09-25T15:48:03.808Z,230.52
2022-09-25T15:50:30.109Z,346.35
2022-09-25T15:52:56.384Z,421.77
2022-09-25T15:55:22.638Z,487.20
2022-09-25T15:57:48.926Z,518.03
2022-09-25T16:00:33.871Z,472.98
2022-09-25T16:03:18.821Z,283.15
2022-09-25T16:05:45.377Z,130.50
2022-09-25T16:08:11.740Z,142.88
2022-09-25T16:10:38.000Z,146.95
2022-09-25T16:13:04.273Z,116.57
2022-09-25T16:15:30.976Z,187.75
2022-09-25T16:18:01.418Z,283.38
2022-09-25T16:20:30.802Z,379.38
2022-09-25T16:22:57.127Z,391.33
2022-09-25T16:25:25.552Z,208.60
2022-09-25T16:27:51.810Z,120.97
2022-09-25T16:30:18.053Z,109.47
2022-09-25T16:32:44.306Z,122.00
2022-09-25T16:35:10.564Z,166.02
2022-09-25T16:37:36.872Z,210.73
2022-09-25T16:40:03.278Z,206.27
2022-09-25T16:42:29.549Z,170.57
2022-09-25T16:44:56.484Z,144.05
2022-09-25T16:47:23.877Z,157.35
2022-09-25T16:49:50.354Z,210.75
2022-09-25T16:52:20.506Z,238.73
2022-09-25T16:54:46.956Z,168.52
2022-09-25T16:57:17.075Z,202.23
2022-09-25T16:59:43.328Z,223.57
2022-09-25T17:02:09.681Z,239.32
2022-09-25T17:04:38.650Z,312.25
2022-09-25T17:07:04.960Z,330.40
2022-09-25T17:09:31.349Z,207.00
2022-09-25T17:11:57.649Z,220.43
2022-09-25T17:14:23.960Z,355.08
2022-09-25T17:16:50.215Z,385.00
2022-09-25T17:19:16.734Z,244.25
2022-09-25T17:21:42.982Z,115.35
2022-09-25T17:24:09.264Z,186.55
2022-09-25T17:26:35.546Z,356.23
2022-09-25T17:29:01.820Z,212.75
2022-09-25T17:31:28.146Z,109.13
2022-09-25T17:33:54.456Z,173.25
2022-09-25T17:36:20.703Z,226.35
2022-09-25T17:38:47.016Z,211.77
2022-09-25T17:41:13.895Z,141.48
2022-09-25T17:43:42.957Z,145.15
2022-09-25T17:46:09.264Z,209.50
2022-09-25T17:48:35.584Z,140.60
2022-09-25T17:51:01.875Z,119.53
2022-09-25T17:53:28.816Z,238.48
2022-09-25T17:55:55.201Z,136.73
2022-09-25T17:58:22.059Z,121.50
2022-09-25T18:00:48.368Z,148.63
2022-09-25T18:03:14.798Z,183.57
2022-09-25T18:05:41.110Z,151.13
2022-09-25T18:08:07.383Z,91.63
2022-09-25T18:10:33.648Z,86.18
2022-09-25T18:12:59.975Z,98.30
2022-09-25T18:15:26.289Z,131.63
2022-09-25T18:17:52.613Z,123.05
2022-09-25T18:20:37.428Z,115.15
2022-09-25T18:23:03.688Z,106.22
2022-09-25T18:25:29.943Z,74.20
2022-09-25T18:27:56.199Z,74.78
2022-09-25T18:30:24.433Z,88.05
2022-09-25T18:32:51.018Z,95.90
2022-09-25T18:35:17.271Z,107.60
2022-09-25T18:37:43.648Z,120.18
2022-09-25T18:40:09.968Z,134.85
2022-09-25T18:42:36.256Z,150.25
2022-09-25T18:45:03.632Z,138.93
2022-09-25T18:47:29.899Z,110.53
2022-09-25T18:49:56.140Z,86.03
2022-09-25T18:52:22.422Z,88.45
2022-09-25T18:54:48.669Z,89.80
2022-09-25T18:57:15.066Z,122.65
2022-09-25T18:59:41.349Z,160.55
2022-09-25T19:02:07.716Z,183.60
2022-09-25T19:04:35.055Z,175.85
2022-09-25T19:07:01.323Z,136.35
2022-09-25T19:09:28.210Z,96.93
2022-09-25T19:11:55.185Z,88.80
2022-09-25T19:14:21.983Z,123.78
2022-09-25T19:16:48.299Z,97.50
2022-09-25T19:19:14.876Z,105.03
2022-09-25T19:21:44.829Z,156.60
2022-09-25T19:24:11.087Z,125.82
2022-09-25T19:26:37.358Z,87.85
2022-09-25T19:29:04.605Z,60.22
2022-09-25T19:31:31.497Z,58.67
2022-09-25T19:33:58.058Z,58.42
2022-09-25T19:36:24.512Z,51.92
2022-09-25T19:38:50.768Z,56.75
2022-09-25T19:41:17.021Z,59.95
2022-09-25T19:43:43.294Z,69.47
2022-09-25T19:46:10.506Z,72.70
2022-09-25T19:48:36.838Z,70.97
2022-09-25T19:51:03.086Z,70.30
2022-09-25T19:53:29.336Z,100.68
2022-09-25T19:55:55.611Z,147.55
2022-09-25T19:58:23.594Z,160.32
2022-09-25T20:00:50.638Z,165.50
2022-09-25T20:03:16.930Z,151.27
2022-09-25T20:05:44.440Z,125.55
2022-09-25T20:08:10.693Z,90.38
2022-09-25T20:10:37.004Z,66.35
2022-09-25T20:13:03.258Z,69.20
2022-09-25T20:15:29.919Z,105.10
2022-09-25T20:17:56.301Z,58.22
2022-09-25T20:20:22.659Z,67.05
2022-09-25T20:22:48.945Z,107.05
2022-09-25T20:25:15.540Z,163.32
2022-09-25T20:27:41.802Z,215.60
2022-09-25T20:30:08.052Z,203.20
2022-09-25T20:32:35.094Z,138.93
2022-09-25T20:35:01.271Z,98.55
2022-09-25T20:37:27.551Z,87.68
2022-09-25T20:39:53.851Z,121.95
2022-09-25T20:42:21.202Z,97.15
2022-09-25T20:44:47.446Z,121.43
2022-09-25T21:01:45.922Z,89.60
2022-09-25T21:04:12.207Z,70.85
2022-09-25T21:06:38.585Z,71.07
2022-09-25T21:09:04.838Z,92.15
2022-09-25T21:11:31.625Z,96.68
2022-09-25T21:14:02.391Z,92.07
2022-09-25T21:16:28.697Z,79.05
2022-09-25T21:18:54.989Z,66.45
2022-09-25T21:21:21.256Z,65.68
2022-09-25T21:23:47.962Z,59.42
2022-09-25T21:26:14.228Z,72.03
2022-09-25T21:28:40.490Z,70.25
2022-09-25T21:31:06.850Z,58.95
2022-09-25T21:33:33.112Z,60.33
2022-09-25T21:35:59.355Z,55.03
2022-09-25T21:38:25.631Z,58.25
2022-09-25T21:40:53.647Z,65.00
2022-09-25T21:43:20.628Z,71.03
2022-09-25T21:45:46.939Z,70.65
2022-09-25T21:48:13.508Z,77.13
2022-09-25T21:50:40.031Z,82.63
2022-09-25T21:53:06.283Z,85.18
2022-09-25T21:55:32.539Z,82.53
2022-09-25T21:57:58.807Z,74.57
2022-09-25T22:00:25.047Z,57.90
2022-09-25T22:02:51.348Z,60.75
2022-09-25T22:05:17.656Z,72.53
2022-09-25T22:07:43.925Z,90.15
2022-09-25T22:10:10.167Z,120.45
2022-09-25T22:12:36.427Z,136.10
2022-09-25T22:15:02.711Z,130.52
2022-09-25T22:17:28.956Z,121.13
2022-09-25T22:19:55.238Z,109.85
2022-09-25T22:22:21.507Z,97.03
2022-09-25T22:24:47.777Z,91.53
2022-09-25T22:27:14.027Z,79.53
2022-09-25T22:29:40.280Z,76.97
2022-09-25T22:32:06.543Z,72.82
2022-09-25T22:34:32.797Z,80.68
2022-09-25T22:37:00.383Z,80.28
2022-09-25T22:39:26.902Z,86.13
2022-09-25T22:41:53.160Z,85.63
2022-09-25T22:44:19.619Z,97.78
2022-09-25T22:46:45.885Z,92.72
2022-09-25T22:49:12.188Z,87.85
2022-09-25T22:51:38.472Z,76.03
2022-09-25T22:54:04.729Z,80.15
2022-09-25T22:56:30.977Z,72.15
2022-09-25T22:58:57.219Z,58.67
2022-09-25T23:01:23.592Z,51.45
2022-09-25T23:03:49.904Z,49.97
2022-09-25T23:06:16.164Z,56.28
2022-09-25T23:08:42.414Z,56.50
2022-09-25T23:11:08.736Z,54.83
2022-09-25T23:13:35.024Z,57.00
2022-09-25T23:16:01.278Z,57.80
2022-09-25T23:18:27.554Z,61.85
2022-09-25T23:20:53.814Z,62.60
2022-09-25T23:23:20.063Z,75.60
2022-09-25T23:25:46.512Z,82.72
2022-09-25T23:28:12.781Z,85.38
2022-09-25T23:30:39.116Z,85.60
2022-09-25T23:33:05.441Z,83.07
2022-09-25T23:35:34.385Z,90.85
2022-09-25T23:38:00.644Z,91.65
2022-09-25T23:40:26.947Z,92.72
2022-09-25T23:42:54.421Z,92.63
2022-09-25T23:45:20.820Z,91.03
2022-09-25T23:47:47.078Z,98.07
2022-09-25T23:50:13.332Z,99.07
2022-09-25T23:52:39.585Z,102.07
2022-09-25T23:55:06.054Z,98.70
2022-09-25T23:57:32.307Z,86.10
2022-09-25T23:59:58.573Z,68.30
